Delphos, Kansas
Current Conditions -  °F | °C
As of 5:55 PM on Thursday 27 Nov 2014 (Local Time) from KCNK Reporting Station
Clear Clear  
Wind Chill: 28°   Ceiling: Unl
Heat Index: 35°   Visibility: 10mi
Dew Point: 16°   Wind: 9mph
Humidity: 46%   Direction: 160°SSE
Pressure: 30.22"   Gusts: NA
Location:  39.27°N, 97.77°W
Report Text: KCNK 272355Z AUTO 16008KT 10SM CLR 02/M09 A3022 RMK AO2 SLP252 T00171089 10056 20011 55018
Loading
Personal Weather Stations






























Interactive Weather Map New forecast layout! Learn more

10-Day Weather Forecast

Advertisements
Track Severe Weather on mobile